Time;durP1;ratioP1;P1;durP2;ratioP2;P2;SDS_P1;SDS_P2;PMS_P1;PMS_P2;Temp;Humidity;BMP_temperature;BMP_pressure;BME280_temperature;BME280_humidity;BME280_pressure;Samples;Min_cycle;Max_cycle;Signal;HPM_P1;HPM_P2
2022/06/13 00:02:03;;;;;;;11.93;4.50;;;;;;;;;;5078690;28;20041;-74
2022/06/13 00:04:29;;;;;;;15.57;4.65;;;;;;;;;;5078764;28;20059;-74
2022/06/13 00:06:55;;;;;;;14.63;4.72;;;;;;;;;;5078638;28;20049;-74
2022/06/13 00:09:21;;;;;;;13.27;4.50;;;;;;;;;;5078571;28;20020;-74
2022/06/13 00:11:47;;;;;;;13.70;4.57;;;;;;;;;;5078642;28;20049;-74
2022/06/13 00:14:13;;;;;;;14.52;4.40;;;;;;;;;;5078460;28;20029;-74
2022/06/13 00:16:40;;;;;;;14.80;4.45;;;;;;;;;;5078277;28;20060;-74
2022/06/13 00:19:06;;;;;;;16.70;4.75;;;;;;;;;;5078348;28;20025;-74
2022/06/13 00:21:34;;;;;;;15.13;4.50;;;;;;;;;;5078354;28;20021;-74
2022/06/13 00:24:01;;;;;;;14.15;4.65;;;;;;;;;;5078395;28;20016;-74
2022/06/13 00:26:28;;;;;;;10.10;4.15;;;;;;;;;;5078447;28;20036;-74
2022/06/13 00:28:54;;;;;;;13.65;4.60;;;;;;;;;;5078339;28;20085;-75
2022/06/13 00:31:20;;;;;;;13.25;4.47;;;;;;;;;;5078334;28;20021;-74
2022/06/13 00:33:46;;;;;;;15.98;4.68;;;;;;;;;;5078445;28;20045;-75
2022/06/13 00:36:13;;;;;;;14.85;4.32;;;;;;;;;;5078169;28;20033;-75
2022/06/13 00:38:39;;;;;;;13.18;4.50;;;;;;;;;;5060908;28;20029;-74
2022/06/13 00:41:13;;;;;;;17.52;4.57;;;;;;;;;;5078266;28;20056;-74
2022/06/13 00:43:40;;;;;;;14.10;4.85;;;;;;;;;;5077809;28;20053;-74
2022/06/13 00:46:16;;;;;;;14.07;4.43;;;;;;;;;;5078275;28;20045;-75
2022/06/13 00:48:42;;;;;;;15.40;4.72;;;;;;;;;;5078151;28;20025;-75
2022/06/13 00:51:09;;;;;;;14.52;4.38;;;;;;;;;;5077501;28;20028;-74
2022/06/13 00:53:36;;;;;;;14.52;4.40;;;;;;;;;;5077883;28;20044;-75
2022/06/13 00:56:05;;;;;;;15.13;4.53;;;;;;;;;;5077831;28;20036;-75
2022/06/13 00:58:34;;;;;;;14.18;4.78;;;;;;;;;;5077907;28;20017;-74
2022/06/13 01:01:01;;;;;;;13.02;4.68;;;;;;;;;;5077250;28;20017;-75
2022/06/13 01:03:29;;;;;;;13.95;5.25;;;;;;;;;;5076963;28;20037;-75
2022/06/13 01:05:56;;;;;;;12.73;4.65;;;;;;;;;;5079938;28;20044;-75
2022/06/13 01:08:24;;;;;;;17.02;5.50;;;;;;;;;;5081962;28;20048;-74
2022/06/13 01:13:39;;;;;;;14.82;5.78;;;;;;;;;;5081833;28;20021;-74
2022/06/13 01:16:05;;;;;;;14.15;5.22;;;;;;;;;;5081516;28;20036;-75
2022/06/13 01:18:34;;;;;;;13.80;4.50;;;;;;;;;;5081396;28;20076;-75
2022/06/13 01:21:13;;;;;;;17.38;4.88;;;;;;;;;;5081507;28;20021;-75
2022/06/13 01:23:39;;;;;;;15.00;4.90;;;;;;;;;;5081368;28;20033;-75
2022/06/13 01:26:11;;;;;;;15.02;4.88;;;;;;;;;;5081493;28;20023;-75
2022/06/13 01:28:40;;;;;;;17.77;5.22;;;;;;;;;;5081008;28;20037;-74
2022/06/13 01:31:09;;;;;;;13.63;4.85;;;;;;;;;;5081354;28;20028;-75
2022/06/13 01:33:35;;;;;;;15.30;4.97;;;;;;;;;;5081177;28;20029;-75
2022/06/13 01:36:08;;;;;;;13.27;4.63;;;;;;;;;;5081292;28;20044;-75
2022/06/13 01:38:42;;;;;;;14.85;4.80;;;;;;;;;;5080822;28;20032;-75
2022/06/13 01:41:27;;;;;;;14.32;4.95;;;;;;;;;;5080785;28;20044;-75
2022/06/13 01:44:02;;;;;;;17.73;5.05;;;;;;;;;;5081160;28;20075;-75
2022/06/13 01:46:31;;;;;;;13.95;5.15;;;;;;;;;;5080398;28;20053;-75
2022/06/13 01:49:16;;;;;;;16.70;4.97;;;;;;;;;;5080471;28;20025;-74
2022/06/13 01:51:55;;;;;;;16.58;5.13;;;;;;;;;;5080993;28;20025;-74
2022/06/13 01:54:25;;;;;;;16.00;4.88;;;;;;;;;;5080537;28;20025;-74
2022/06/13 01:56:51;;;;;;;16.05;4.82;;;;;;;;;;5080669;28;20120;-74
2022/06/13 01:59:32;;;;;;;11.07;4.28;;;;;;;;;;5080703;28;20029;-74
2022/06/13 02:02:05;;;;;;;12.10;4.63;;;;;;;;;;5079134;28;20048;-74
2022/06/13 02:04:33;;;;;;;16.67;4.70;;;;;;;;;;5079424;28;20069;-74
2022/06/13 02:07:05;;;;;;;14.85;4.90;;;;;;;;;;5078919;28;20035;-74
2022/06/13 02:09:35;;;;;;;11.77;4.40;;;;;;;;;;5079690;28;20044;-74
2022/06/13 02:12:01;;;;;;;10.63;4.75;;;;;;;;;;5078832;28;20048;-74
2022/06/13 02:14:46;;;;;;;14.65;5.03;;;;;;;;;;5078876;28;20101;-74
2022/06/13 02:17:13;;;;;;;14.52;4.93;;;;;;;;;;5080046;28;20037;-74
2022/06/13 02:19:46;;;;;;;11.75;4.70;;;;;;;;;;5078600;28;20059;-74
2022/06/13 02:22:24;;;;;;;16.10;4.97;;;;;;;;;;5079757;28;20056;-74
2022/06/13 02:24:58;;;;;;;12.05;5.18;;;;;;;;;;5079984;28;20121;-73
2022/06/13 02:27:27;;;;;;;15.52;5.30;;;;;;;;;;5079652;28;20068;-74
2022/06/13 02:29:57;;;;;;;17.83;5.57;;;;;;;;;;5079286;28;20031;-74
2022/06/13 02:32:30;;;;;;;11.75;5.03;;;;;;;;;;5079382;28;20119;-74
2022/06/13 02:35:01;;;;;;;13.68;5.03;;;;;;;;;;5079813;28;20080;-74
2022/06/13 02:37:31;;;;;;;16.63;6.45;;;;;;;;;;5079106;28;20086;-74
2022/06/13 02:40:00;;;;;;;14.65;6.07;;;;;;;;;;5079923;28;20032;-74
2022/06/13 02:42:28;;;;;;;13.93;5.38;;;;;;;;;;5079499;28;20062;-74
2022/06/13 02:45:02;;;;;;;13.60;5.30;;;;;;;;;;5079245;28;20033;-74
2022/06/13 02:47:47;;;;;;;13.63;5.50;;;;;;;;;;5079688;28;20067;-74
2022/06/13 02:50:18;;;;;;;15.27;5.80;;;;;;;;;;5079746;28;20045;-74
2022/06/13 02:52:55;;;;;;;15.07;6.03;;;;;;;;;;5079596;28;20083;-74
2022/06/13 02:55:22;;;;;;;15.38;5.63;;;;;;;;;;5079351;28;20025;-74
2022/06/13 02:58:00;;;;;;;13.40;5.53;;;;;;;;;;5079375;28;20042;-74
2022/06/13 03:00:32;;;;;;;16.73;6.70;;;;;;;;;;5078045;28;20097;-74
2022/06/13 03:03:06;;;;;;;15.68;5.95;;;;;;;;;;5078610;28;20044;-74
2022/06/13 03:05:39;;;;;;;19.10;6.20;;;;;;;;;;5078190;28;20052;-74
2022/06/13 03:08:12;;;;;;;20.73;6.50;;;;;;;;;;5078652;28;20025;-74
2022/06/13 03:10:50;;;;;;;15.85;6.75;;;;;;;;;;5079337;28;20127;-74
2022/06/13 03:13:22;;;;;;;17.63;6.43;;;;;;;;;;5079370;28;20016;-74
2022/06/13 03:15:51;;;;;;;15.95;6.95;;;;;;;;;;5079354;28;20025;-74
2022/06/13 03:18:38;;;;;;;16.17;5.75;;;;;;;;;;5078713;28;20028;-74
2022/06/13 03:21:10;;;;;;;17.85;6.55;;;;;;;;;;5078538;28;20025;-74
2022/06/13 03:23:40;;;;;;;17.85;6.85;;;;;;;;;;5078094;28;20392;-74
2022/06/13 03:26:26;;;;;;;20.75;7.10;;;;;;;;;;5077799;28;20041;-74
2022/06/13 03:28:54;;;;;;;19.02;7.35;;;;;;;;;;5076209;28;20045;-74
2022/06/13 03:31:23;;;;;;;15.82;7.30;;;;;;;;;;5076727;28;20029;-74
2022/06/13 03:33:53;;;;;;;18.23;7.13;;;;;;;;;;5076975;28;20021;-74
2022/06/13 03:36:38;;;;;;;19.00;7.53;;;;;;;;;;5077524;28;20308;-73
2022/06/13 03:39:19;;;;;;;21.17;7.32;;;;;;;;;;5078229;28;20029;-74
2022/06/13 03:41:47;;;;;;;20.35;7.68;;;;;;;;;;5078476;28;20041;-74
2022/06/13 03:44:17;;;;;;;17.33;7.55;;;;;;;;;;5077778;28;20037;-74
2022/06/13 03:46:47;;;;;;;18.45;7.18;;;;;;;;;;5078418;28;20084;-74
2022/06/13 03:49:16;;;;;;;20.33;7.30;;;;;;;;;;5078165;28;20025;-74
2022/06/13 03:51:47;;;;;;;17.65;7.43;;;;;;;;;;5078464;28;20060;-74
2022/06/13 03:54:16;;;;;;;14.75;6.70;;;;;;;;;;5078235;28;20021;-74
2022/06/13 03:56:44;;;;;;;14.75;6.90;;;;;;;;;;5077781;28;20048;-74
2022/06/13 03:59:12;;;;;;;20.13;7.30;;;;;;;;;;5078027;28;20027;-74
2022/06/13 04:01:42;;;;;;;18.60;7.13;;;;;;;;;;5077807;28;20037;-74
2022/06/13 04:04:16;;;;;;;16.38;7.40;;;;;;;;;;5077862;28;20021;-74
2022/06/13 04:06:43;;;;;;;17.65;6.78;;;;;;;;;;5078269;28;20084;-73
2022/06/13 04:09:18;;;;;;;16.13;6.47;;;;;;;;;;5077297;28;20028;-74
2022/06/13 04:11:53;;;;;;;18.00;6.15;;;;;;;;;;5077750;28;20035;-74
2022/06/13 04:14:22;;;;;;;17.70;6.80;;;;;;;;;;5078019;28;20060;-74
2022/06/13 04:16:51;;;;;;;16.83;6.88;;;;;;;;;;5077024;28;20029;-73
2022/06/13 04:19:28;;;;;;;18.02;7.07;;;;;;;;;;5077668;28;20033;-74
2022/06/13 04:22:16;;;;;;;15.40;6.30;;;;;;;;;;5077703;28;20027;-73
2022/06/13 04:24:55;;;;;;;17.52;7.18;;;;;;;;;;5078117;28;20032;-74
2022/06/13 04:27:34;;;;;;;15.43;6.78;;;;;;;;;;5078075;28;20088;-74
2022/06/13 04:30:09;;;;;;;17.98;6.82;;;;;;;;;;5078193;28;20037;-74
2022/06/13 04:32:42;;;;;;;16.02;6.68;;;;;;;;;;5077867;28;20032;-74
2022/06/13 04:35:09;;;;;;;15.35;6.15;;;;;;;;;;5078023;28;20085;-75
2022/06/13 04:37:37;;;;;;;16.73;6.90;;;;;;;;;;5078039;28;20053;-75
2022/06/13 04:40:05;;;;;;;18.95;6.82;;;;;;;;;;5079363;28;20046;-74
2022/06/13 04:42:33;;;;;;;18.63;6.65;;;;;;;;;;5082138;28;20093;-75
2022/06/13 04:45:01;;;;;;;12.50;5.63;;;;;;;;;;5081268;28;20028;-73
2022/06/13 04:47:27;;;;;;;14.00;6.05;;;;;;;;;;5081335;28;20101;-75
2022/06/13 04:49:55;;;;;;;18.95;6.60;;;;;;;;;;5081623;28;20024;-74
2022/06/13 04:52:25;;;;;;;19.90;6.00;;;;;;;;;;5081144;28;20031;-75
2022/06/13 04:55:00;;;;;;;14.50;6.13;;;;;;;;;;5081386;28;20028;-75
2022/06/13 04:57:27;;;;;;;10.85;5.05;;;;;;;;;;5081505;28;20029;-74
2022/06/13 04:59:53;;;;;;;12.90;4.97;;;;;;;;;;5081585;28;20041;-75
2022/06/13 05:02:23;;;;;;;14.70;5.35;;;;;;;;;;5081818;28;20025;-74
2022/06/13 05:04:49;;;;;;;13.68;4.95;;;;;;;;;;5081881;28;20053;-74
2022/06/13 05:07:18;;;;;;;15.60;5.00;;;;;;;;;;5080992;28;20046;-75
2022/06/13 05:09:46;;;;;;;16.98;4.95;;;;;;;;;;5081376;28;20037;-75
2022/06/13 05:12:12;;;;;;;12.55;5.20;;;;;;;;;;5081343;28;20067;-74
2022/06/13 05:14:38;;;;;;;10.65;4.05;;;;;;;;;;5080988;28;20033;-75
2022/06/13 05:17:08;;;;;;;11.55;3.92;;;;;;;;;;5081088;28;20041;-75
2022/06/13 05:19:42;;;;;;;11.88;3.95;;;;;;;;;;5080375;28;20055;-75
2022/06/13 05:22:11;;;;;;;11.20;4.03;;;;;;;;;;5078931;28;20041;-74
2022/06/13 05:24:37;;;;;;;13.45;4.32;;;;;;;;;;5080401;28;20049;-74
2022/06/13 05:27:06;;;;;;;13.60;3.85;;;;;;;;;;5079988;28;20097;-75
2022/06/13 05:29:33;;;;;;;10.82;3.10;;;;;;;;;;5080482;28;20032;-75
2022/06/13 05:31:59;;;;;;;10.50;3.55;;;;;;;;;;5079684;28;20100;-75
2022/06/13 05:34:34;;;;;;;11.25;2.75;;;;;;;;;;5061740;28;20049;-75
2022/06/13 05:37:00;;;;;;;11.38;2.90;;;;;;;;;;5078491;28;20036;-76
2022/06/13 05:39:26;;;;;;;8.75;2.25;;;;;;;;;;5076128;28;20091;-76
2022/06/13 05:41:52;;;;;;;11.45;2.90;;;;;;;;;;5077347;28;20052;-76
2022/06/13 05:44:18;;;;;;;10.57;2.83;;;;;;;;;;5078294;28;20061;-75
2022/06/13 05:46:44;;;;;;;8.02;2.70;;;;;;;;;;5078904;28;20083;-76
2022/06/13 05:49:12;;;;;;;11.10;2.50;;;;;;;;;;5079230;28;20436;-75
2022/06/13 05:51:39;;;;;;;12.57;3.05;;;;;;;;;;5076930;28;20052;-76
2022/06/13 05:54:05;;;;;;;9.48;2.40;;;;;;;;;;5077828;28;20065;-76
2022/06/13 05:56:31;;;;;;;9.52;2.83;;;;;;;;;;5076740;28;20045;-76
2022/06/13 05:58:57;;;;;;;9.48;2.83;;;;;;;;;;5077914;28;20048;-76
2022/06/13 06:01:23;;;;;;;8.65;2.40;;;;;;;;;;5078863;28;20076;-75
2022/06/13 06:03:49;;;;;;;10.30;2.40;;;;;;;;;;5079580;28;20078;-75
2022/06/13 06:06:26;;;;;;;8.63;2.53;;;;;;;;;;5080234;28;20053;-75
2022/06/13 06:08:55;;;;;;;9.65;2.53;;;;;;;;;;5079937;28;20040;-75
2022/06/13 06:11:22;;;;;;;8.60;1.98;;;;;;;;;;5080357;28;20024;-75
2022/06/13 06:13:48;;;;;;;7.00;2.05;;;;;;;;;;5079323;28;20097;-75
2022/06/13 06:16:16;;;;;;;7.47;2.20;;;;;;;;;;5079052;28;20041;-75
2022/06/13 06:18:42;;;;;;;8.70;2.03;;;;;;;;;;5079238;28;20049;-76
2022/06/13 06:21:08;;;;;;;7.13;1.60;;;;;;;;;;5079345;28;20045;-76
2022/06/13 06:23:35;;;;;;;7.35;1.67;;;;;;;;;;5078475;28;20021;-75
2022/06/13 06:26:02;;;;;;;6.70;2.40;;;;;;;;;;5076129;28;20059;-76
2022/06/13 06:28:29;;;;;;;7.13;1.85;;;;;;;;;;5078941;28;20049;-76
2022/06/13 06:30:57;;;;;;;7.97;1.42;;;;;;;;;;5079000;28;20028;-76
2022/06/13 06:33:24;;;;;;;6.70;1.83;;;;;;;;;;5079183;28;20025;-76
2022/06/13 06:35:51;;;;;;;8.75;1.75;;;;;;;;;;5078981;28;20063;-76
2022/06/13 06:38:18;;;;;;;4.95;1.20;;;;;;;;;;5079543;28;20029;-74
2022/06/13 06:40:44;;;;;;;6.05;1.83;;;;;;;;;;5079144;28;20033;-74
2022/06/13 06:43:10;;;;;;;7.50;1.45;;;;;;;;;;5061844;28;20055;-75
2022/06/13 06:45:37;;;;;;;6.65;1.30;;;;;;;;;;5078168;28;20041;-75
2022/06/13 06:48:03;;;;;;;6.45;1.45;;;;;;;;;;5079259;28;20045;-76
2022/06/13 06:50:34;;;;;;;7.78;1.67;;;;;;;;;;5079587;28;20035;-75
2022/06/13 06:53:00;;;;;;;6.47;1.33;;;;;;;;;;5079353;28;20045;-75
2022/06/13 07:00:59;;;;;;;7.47;1.50;;;;;;;;;;5078899;28;20088;-75
2022/06/13 07:03:25;;;;;;;5.10;1.40;;;;;;;;;;5078475;28;20035;-75
2022/06/13 07:05:52;;;;;;;7.20;1.17;;;;;;;;;;5079419;28;20059;-74
2022/06/13 07:08:18;;;;;;;7.63;1.48;;;;;;;;;;5079364;28;20044;-75
2022/06/13 07:10:46;;;;;;;5.50;0.98;;;;;;;;;;5079542;28;20031;-75
2022/06/13 07:13:12;;;;;;;7.38;1.30;;;;;;;;;;5079428;28;20029;-74
2022/06/13 07:15:38;;;;;;;7.60;1.25;;;;;;;;;;5079253;28;20081;-74
2022/06/13 07:18:04;;;;;;;5.40;1.20;;;;;;;;;;5079457;28;20040;-74
2022/06/13 07:20:30;;;;;;;7.78;1.40;;;;;;;;;;5079329;28;20025;-74
2022/06/13 07:22:57;;;;;;;6.53;1.25;;;;;;;;;;5079359;28;20085;-74
2022/06/13 07:25:25;;;;;;;9.10;2.03;;;;;;;;;;5079087;28;20036;-74
2022/06/13 07:27:52;;;;;;;9.10;1.83;;;;;;;;;;5079104;28;20037;-74
2022/06/13 07:30:19;;;;;;;7.43;1.20;;;;;;;;;;5079182;28;20032;-74
2022/06/13 07:32:45;;;;;;;4.47;1.02;;;;;;;;;;5079151;28;20035;-74
2022/06/13 07:35:12;;;;;;;9.50;1.67;;;;;;;;;;5079116;28;20043;-74
2022/06/13 07:40:24;;;;;;;4.07;0.98;;;;;;;;;;5078884;28;20025;-74
2022/06/13 07:42:52;;;;;;;5.78;1.10;;;;;;;;;;5078930;28;20017;-75
2022/06/13 07:45:22;;;;;;;5.97;1.23;;;;;;;;;;5078703;28;20033;-74
2022/06/13 07:47:49;;;;;;;4.55;1.00;;;;;;;;;;5078734;28;20029;-75
2022/06/13 07:50:16;;;;;;;4.47;0.93;;;;;;;;;;5078409;28;20051;-75
2022/06/13 07:52:42;;;;;;;3.90;1.17;;;;;;;;;;5078505;28;20043;-75
2022/06/13 07:55:09;;;;;;;3.42;0.90;;;;;;;;;;5078668;28;20085;-75
2022/06/13 07:57:35;;;;;;;2.92;0.60;;;;;;;;;;5078688;28;20072;-75
2022/06/13 08:00:01;;;;;;;3.35;0.93;;;;;;;;;;5078457;28;20039;-75
2022/06/13 08:02:30;;;;;;;3.88;0.90;;;;;;;;;;5078175;28;20041;-74
2022/06/13 08:04:56;;;;;;;5.07;0.80;;;;;;;;;;5078349;28;20039;-75
2022/06/13 08:07:24;;;;;;;4.53;0.80;;;;;;;;;;5078405;28;20029;-75
2022/06/13 08:09:50;;;;;;;2.58;0.70;;;;;;;;;;5078104;28;20037;-74
2022/06/13 08:12:18;;;;;;;5.22;0.80;;;;;;;;;;5078037;28;20033;-75
2022/06/13 08:14:48;;;;;;;4.60;1.20;;;;;;;;;;5077923;28;20037;-74
2022/06/13 08:17:19;;;;;;;8.05;1.10;;;;;;;;;;5078217;28;20037;-74
2022/06/13 08:19:44;;;;;;;;;;;;;;;;;;5078591;28;20041;-74
2022/06/13 08:22:10;;;;;;;6.28;1.10;;;;;;;;;;5078202;28;19905;-75
2022/06/13 08:24:37;;;;;;;6.40;1.10;;;;;;;;;;5078363;28;20021;-75
2022/06/13 08:27:03;;;;;;;8.68;1.27;;;;;;;;;;5078013;28;20024;-75
2022/06/13 08:29:30;;;;;;;6.47;1.20;;;;;;;;;;5077226;28;20040;-75
2022/06/13 08:31:56;;;;;;;6.88;1.10;;;;;;;;;;5077354;28;20021;-75
2022/06/13 08:34:22;;;;;;;6.65;1.30;;;;;;;;;;5077074;28;20085;-74
2022/06/13 08:36:48;;;;;;;6.88;1.25;;;;;;;;;;5077762;28;20052;-74
2022/06/13 08:39:15;;;;;;;5.82;1.20;;;;;;;;;;5077124;28;20029;-74
2022/06/13 08:41:50;;;;;;;6.30;1.23;;;;;;;;;;5076553;28;20047;-74
2022/06/13 08:44:19;;;;;;;6.97;1.13;;;;;;;;;;5076488;28;20056;-74
2022/06/13 08:46:45;;;;;;;7.20;1.33;;;;;;;;;;5077312;28;20049;-74
2022/06/13 08:49:31;;;;;;;8.18;1.48;;;;;;;;;;5077606;28;20027;-75
2022/06/13 08:51:57;;;;;;;8.60;1.40;;;;;;;;;;5077195;28;20047;-75
2022/06/13 08:54:27;;;;;;;8.40;1.30;;;;;;;;;;5075707;28;20041;-74
2022/06/13 08:56:54;;;;;;;8.68;1.60;;;;;;;;;;5074787;28;20076;-74
2022/06/13 08:59:23;;;;;;;7.88;1.50;;;;;;;;;;5074809;28;20037;-75
2022/06/13 09:01:51;;;;;;;7.07;1.33;;;;;;;;;;5075460;28;20053;-75
2022/06/13 09:04:20;;;;;;;5.50;1.20;;;;;;;;;;5074244;28;20029;-75
2022/06/13 09:06:48;;;;;;;5.50;1.38;;;;;;;;;;5075016;28;20037;-75
2022/06/13 09:09:18;;;;;;;6.07;1.10;;;;;;;;;;5075278;28;20025;-75
2022/06/13 09:11:56;;;;;;;6.70;1.20;;;;;;;;;;5075163;28;20048;-74
2022/06/13 09:14:28;;;;;;;6.70;1.02;;;;;;;;;;5074902;28;20052;-75
2022/06/13 09:17:01;;;;;;;6.65;0.98;;;;;;;;;;5075755;28;20052;-75
2022/06/13 09:19:32;;;;;;;6.85;1.10;;;;;;;;;;5075220;28;20045;-75
2022/06/13 09:22:04;;;;;;;4.72;0.80;;;;;;;;;;5075208;28;20067;-74
2022/06/13 09:24:36;;;;;;;4.65;0.80;;;;;;;;;;5075600;28;20068;-74
2022/06/13 09:27:05;;;;;;;5.30;0.85;;;;;;;;;;5077696;28;20051;-75
2022/06/13 09:29:39;;;;;;;8.35;1.27;;;;;;;;;;5077424;28;20032;-75
2022/06/13 09:32:14;;;;;;;7.10;1.13;;;;;;;;;;5078449;28;20041;-74
2022/06/13 09:34:45;;;;;;;7.75;1.27;;;;;;;;;;5079328;28;20049;-75
2022/06/13 09:37:11;;;;;;;;;;;;;;;;;;5079303;28;20045;-75
2022/06/13 09:39:38;;;;;;;5.47;1.20;;;;;;;;;;5079678;28;19928;-74
2022/06/13 09:42:16;;;;;;;6.93;1.13;;;;;;;;;;5078061;28;20048;-74
2022/06/13 09:44:58;;;;;;;7.18;1.10;;;;;;;;;;5078594;28;20053;-74
2022/06/13 09:47:27;;;;;;;5.50;1.02;;;;;;;;;;5079010;28;20071;-74
2022/06/13 09:50:08;;;;;;;6.38;1.25;;;;;;;;;;5078179;28;20060;-74
2022/06/13 09:52:43;;;;;;;8.38;1.00;;;;;;;;;;5078744;28;20025;-74
2022/06/13 09:55:24;;;;;;;7.15;1.08;;;;;;;;;;5079132;28;20040;-74
2022/06/13 09:57:50;;;;;;;6.47;0.93;;;;;;;;;;5078397;28;20044;-74
2022/06/13 10:00:19;;;;;;;7.28;1.00;;;;;;;;;;5078435;28;20049;-74
2022/06/13 10:03:03;;;;;;;5.68;1.00;;;;;;;;;;5078977;28;20045;-74
2022/06/13 10:05:29;;;;;;;5.82;0.85;;;;;;;;;;5079182;28;20048;-74
2022/06/13 10:07:56;;;;;;;4.63;0.82;;;;;;;;;;5079001;28;20044;-74
2022/06/13 10:10:41;;;;;;;6.00;0.70;;;;;;;;;;5079629;28;20068;-75
2022/06/13 10:13:15;;;;;;;5.03;1.08;;;;;;;;;;5080221;28;20032;-75
2022/06/13 10:16:00;;;;;;;5.93;1.10;;;;;;;;;;5079978;28;20059;-75
2022/06/13 10:18:26;;;;;;;8.93;1.27;;;;;;;;;;5080141;28;20027;-75
2022/06/13 10:20:53;;;;;;;4.07;0.65;;;;;;;;;;5080267;28;20029;-75
2022/06/13 10:23:41;;;;;;;7.47;0.80;;;;;;;;;;5078899;28;20065;-75
2022/06/13 10:26:24;;;;;;;5.82;0.88;;;;;;;;;;5077268;28;20037;-75
2022/06/13 10:28:50;;;;;;;8.45;0.90;;;;;;;;;;5077069;28;20509;-75
2022/06/13 10:31:25;;;;;;;6.03;1.13;;;;;;;;;;5076784;28;20041;-75
2022/06/13 10:34:06;;;;;;;9.25;1.10;;;;;;;;;;5077296;28;20048;-75
2022/06/13 10:36:39;;;;;;;6.68;1.00;;;;;;;;;;5076342;28;20049;-75
2022/06/13 10:39:07;;;;;;;8.38;1.40;;;;;;;;;;5076985;28;20049;-75
2022/06/13 10:41:36;;;;;;;4.65;0.98;;;;;;;;;;5077543;28;20037;-75
2022/06/13 10:44:03;;;;;;;6.93;1.08;;;;;;;;;;5078294;28;20069;-75
2022/06/13 10:46:29;;;;;;;4.72;0.77;;;;;;;;;;5079346;28;20045;-75
2022/06/13 10:48:58;;;;;;;6.28;1.00;;;;;;;;;;5079947;28;20056;-75
2022/06/13 10:51:24;;;;;;;6.40;1.55;;;;;;;;;;5079898;28;20028;-74
2022/06/13 10:54:04;;;;;;;6.25;1.17;;;;;;;;;;5079693;28;20064;-74
2022/06/13 10:56:35;;;;;;;6.85;1.13;;;;;;;;;;5079459;28;20044;-75
2022/06/13 10:59:01;;;;;;;6.43;1.00;;;;;;;;;;5078946;28;20041;-75
2022/06/13 11:01:28;;;;;;;6.68;1.02;;;;;;;;;;5078556;28;20052;-74
2022/06/13 11:04:13;;;;;;;7.57;1.20;;;;;;;;;;5078747;28;20067;-75
2022/06/13 11:06:44;;;;;;;5.07;1.05;;;;;;;;;;5078363;28;20040;-75
2022/06/13 11:09:22;;;;;;;8.15;1.55;;;;;;;;;;5078419;28;20036;-75
2022/06/13 11:11:48;;;;;;;6.32;1.35;;;;;;;;;;5078583;28;20110;-75
2022/06/13 11:14:25;;;;;;;8.77;1.67;;;;;;;;;;5078787;28;20044;-75
2022/06/13 11:22:37;;;;;;;7.20;1.20;;;;;;;;;;5076948;28;20044;-74
2022/06/13 11:25:10;;;;;;;7.78;1.10;;;;;;;;;;5076465;28;20115;-75
2022/06/13 11:27:41;;;;;;;4.55;0.80;;;;;;;;;;5075974;28;20025;-75
2022/06/13 11:30:28;;;;;;;5.25;1.00;;;;;;;;;;5075632;28;20100;-75
2022/06/13 11:33:10;;;;;;;7.70;1.00;;;;;;;;;;5077116;28;20025;-75
2022/06/13 11:35:36;;;;;;;;;;;;;;;;;;5078349;28;20031;-75
2022/06/13 11:38:16;;;;;;;6.13;1.00;;;;;;;;;;5078043;28;19921;-75
2022/06/13 11:40:43;;;;;;;5.68;1.17;;;;;;;;;;5075870;28;20037;-75
2022/06/13 11:43:19;;;;;;;7.95;1.48;;;;;;;;;;5074992;28;20053;-75
2022/06/13 11:45:53;;;;;;;9.52;1.30;;;;;;;;;;5075715;28;20140;-75
2022/06/13 11:48:19;;;;;;;6.75;1.35;;;;;;;;;;5074999;28;20040;-75
2022/06/13 11:50:45;;;;;;;7.93;1.48;;;;;;;;;;5076770;28;20048;-75
2022/06/13 11:55:59;;;;;;;9.82;1.60;;;;;;;;;;5076837;28;20025;-75
2022/06/13 11:58:27;;;;;;;8.57;1.60;;;;;;;;;;5077318;28;20021;-75
2022/06/13 12:00:54;;;;;;;6.50;1.38;;;;;;;;;;5077304;28;20088;-74
2022/06/13 12:03:25;;;;;;;5.80;1.38;;;;;;;;;;5077163;28;20036;-75
2022/06/13 12:05:57;;;;;;;7.57;1.40;;;;;;;;;;5059426;28;20039;-75
2022/06/13 12:08:26;;;;;;;7.38;1.52;;;;;;;;;;5077468;28;20024;-75
2022/06/13 12:10:55;;;;;;;9.70;1.80;;;;;;;;;;5075720;28;20028;-75
2022/06/13 12:13:22;;;;;;;11.15;1.83;;;;;;;;;;5075343;28;20045;-75
2022/06/13 12:16:01;;;;;;;6.60;1.27;;;;;;;;;;5075737;28;20037;-76
2022/06/13 12:18:34;;;;;;;10.52;1.75;;;;;;;;;;5075330;28;20048;-75
2022/06/13 12:21:08;;;;;;;7.95;1.73;;;;;;;;;;5075596;28;20048;-75
2022/06/13 12:23:37;;;;;;;7.45;1.30;;;;;;;;;;5075513;28;20037;-75
2022/06/13 12:26:15;;;;;;;8.23;1.70;;;;;;;;;;5075028;28;20070;-76
2022/06/13 12:28:50;;;;;;;7.55;1.38;;;;;;;;;;5073945;28;20116;-75
2022/06/13 12:31:35;;;;;;;10.88;1.98;;;;;;;;;;5074030;28;20041;-75
2022/06/13 12:34:10;;;;;;;8.75;1.90;;;;;;;;;;5073449;28;20045;-75
2022/06/13 12:36:59;;;;;;;9.40;1.70;;;;;;;;;;5073044;28;20045;-74
2022/06/13 12:39:39;;;;;;;9.15;1.90;;;;;;;;;;5071479;28;20071;-74
2022/06/13 12:42:24;;;;;;;10.25;1.52;;;;;;;;;;5075042;28;20081;-75
2022/06/13 12:45:09;;;;;;;9.02;1.48;;;;;;;;;;5075333;28;20039;-74
2022/06/13 12:47:43;;;;;;;13.13;2.03;;;;;;;;;;5074997;28;20101;-74
2022/06/13 12:50:19;;;;;;;11.95;1.58;;;;;;;;;;5076702;28;20067;-74
2022/06/13 12:53:01;;;;;;;10.00;1.70;;;;;;;;;;5076852;28;20033;-74
2022/06/13 12:55:42;;;;;;;11.07;1.73;;;;;;;;;;5076319;28;20036;-74
2022/06/13 12:58:18;;;;;;;10.30;1.88;;;;;;;;;;5077223;28;20043;-74
2022/06/13 13:00:53;;;;;;;11.13;1.85;;;;;;;;;;5078275;28;20032;-75
2022/06/13 13:03:19;;;;;;;8.90;1.67;;;;;;;;;;5080347;28;20025;-74
2022/06/13 13:06:06;;;;;;;11.20;1.88;;;;;;;;;;5080204;28;20036;-74
2022/06/13 13:08:45;;;;;;;9.77;1.67;;;;;;;;;;5080047;28;20110;-74
2022/06/13 13:11:17;;;;;;;12.52;1.88;;;;;;;;;;5080219;28;20044;-74
2022/06/13 13:13:44;;;;;;;9.18;1.67;;;;;;;;;;5080369;28;20051;-75
2022/06/13 13:16:14;;;;;;;8.02;1.45;;;;;;;;;;5079909;28;20025;-75
2022/06/13 13:18:47;;;;;;;7.13;1.48;;;;;;;;;;5080173;28;20059;-75
2022/06/13 13:21:31;;;;;;;10.30;1.55;;;;;;;;;;5079615;28;20060;-75
2022/06/13 13:24:17;;;;;;;9.30;1.77;;;;;;;;;;5080000;28;20048;-75
2022/06/13 13:27:06;;;;;;;8.57;1.13;;;;;;;;;;5079644;28;20041;-75
2022/06/13 13:29:44;;;;;;;8.00;1.42;;;;;;;;;;5076661;28;20071;-75
2022/06/13 13:32:25;;;;;;;6.65;1.40;;;;;;;;;;5079279;28;20037;-74
2022/06/13 13:34:54;;;;;;;7.47;1.38;;;;;;;;;;5080143;28;20058;-74
2022/06/13 13:37:32;;;;;;;10.05;1.50;;;;;;;;;;5080361;28;20037;-74
2022/06/13 13:40:17;;;;;;;6.55;1.08;;;;;;;;;;5079827;28;20131;-74
2022/06/13 13:42:46;;;;;;;9.15;1.30;;;;;;;;;;5079768;28;20415;-75
2022/06/13 13:45:31;;;;;;;7.43;1.33;;;;;;;;;;5078914;28;20036;-75
2022/06/13 13:48:02;;;;;;;7.88;1.48;;;;;;;;;;5079795;28;20033;-74
2022/06/13 13:50:29;;;;;;;8.80;1.65;;;;;;;;;;5079156;28;20060;-74
2022/06/13 13:53:00;;;;;;;8.90;1.42;;;;;;;;;;5079453;28;20073;-74
2022/06/13 13:55:41;;;;;;;10.07;1.50;;;;;;;;;;5077501;28;20049;-75
2022/06/13 13:58:33;;;;;;;6.47;1.35;;;;;;;;;;5078389;28;20052;-75
2022/06/13 14:00:59;;;;;;;8.38;1.50;;;;;;;;;;5076690;28;20057;-75
2022/06/13 14:03:52;;;;;;;10.48;1.50;;;;;;;;;;5061569;28;20021;-74
2022/06/13 14:06:22;;;;;;;8.48;1.60;;;;;;;;;;5078979;28;20055;-75
2022/06/13 14:08:49;;;;;;;7.78;1.40;;;;;;;;;;5078782;28;20113;-75
2022/06/13 14:11:15;;;;;;;10.18;1.38;;;;;;;;;;5077937;28;20041;-75
2022/06/13 14:13:42;;;;;;;10.40;1.60;;;;;;;;;;5077319;28;20032;-75
2022/06/13 14:16:14;;;;;;;7.07;1.27;;;;;;;;;;5078539;28;20035;-75
2022/06/13 14:18:43;;;;;;;6.45;1.27;;;;;;;;;;5078682;28;20029;-75
2022/06/13 14:21:14;;;;;;;10.05;1.60;;;;;;;;;;5078168;28;20096;-76
2022/06/13 14:23:43;;;;;;;8.82;1.48;;;;;;;;;;5077373;28;20128;-75
2022/06/13 14:26:19;;;;;;;6.10;0.90;;;;;;;;;;5077859;28;20064;-75
2022/06/13 14:28:50;;;;;;;5.25;1.05;;;;;;;;;;5077952;28;20045;-75
2022/06/13 14:31:16;;;;;;;8.00;1.45;;;;;;;;;;5078092;28;20052;-76
2022/06/13 14:36:50;;;;;;;6.18;1.00;;;;;;;;;;5077770;28;20057;-75
2022/06/13 14:39:22;;;;;;;6.38;1.25;;;;;;;;;;5078315;28;20045;-75
2022/06/13 14:41:49;;;;;;;6.40;1.10;;;;;;;;;;5077737;28;20041;-76
2022/06/13 14:44:24;;;;;;;7.13;1.20;;;;;;;;;;5077855;28;20053;-75
2022/06/13 14:46:50;;;;;;;5.95;1.00;;;;;;;;;;5078602;28;20088;-75
2022/06/13 14:49:24;;;;;;;7.10;1.40;;;;;;;;;;5078080;28;20029;-75
2022/06/13 14:51:58;;;;;;;7.93;1.13;;;;;;;;;;5077277;28;20105;-75
2022/06/13 14:54:38;;;;;;;5.68;1.02;;;;;;;;;;5077794;28;20045;-76
2022/06/13 14:57:24;;;;;;;5.82;1.15;;;;;;;;;;5078212;28;20079;-76
2022/06/13 15:00:02;;;;;;;6.35;0.90;;;;;;;;;;5077446;28;20045;-75
2022/06/13 15:02:29;;;;;;;5.63;1.02;;;;;;;;;;5077270;28;20380;-75
2022/06/13 15:05:13;;;;;;;5.10;0.80;;;;;;;;;;5078186;28;20112;-75
2022/06/13 15:07:42;;;;;;;7.22;1.15;;;;;;;;;;5078396;28;20045;-75
2022/06/13 15:10:14;;;;;;;7.47;1.00;;;;;;;;;;5077620;28;20025;-75
2022/06/13 15:12:42;;;;;;;4.85;0.80;;;;;;;;;;5078407;28;20027;-75
2022/06/13 15:15:20;;;;;;;6.05;1.17;;;;;;;;;;5078616;28;20059;-75
2022/06/13 15:17:47;;;;;;;6.28;1.10;;;;;;;;;;5079045;28;20083;-75
2022/06/13 15:20:15;;;;;;;6.57;1.10;;;;;;;;;;5078912;28;20016;-75
2022/06/13 15:22:47;;;;;;;7.05;1.20;;;;;;;;;;5079282;28;20041;-76
2022/06/13 15:25:13;;;;;;;;;;;;;;;;;;5078684;28;20077;-75